sensor_id;sensor_type;location;lat;lon;timestamp;temperature;humidity
14170;DHT22;63889;50.596;8.690;2022-10-16T00:01:24;14.80;99.90
14170;DHT22;63889;50.596;8.690;2022-10-16T00:03:50;14.80;99.90
14170;DHT22;63889;50.596;8.690;2022-10-16T00:06:18;14.80;99.90
14170;DHT22;63889;50.596;8.690;2022-10-16T00:08:44;14.80;99.90
14170;DHT22;63889;50.596;8.690;2022-10-16T00:11:38;14.80;99.90
14170;DHT22;63889;50.596;8.690;2022-10-16T00:14:06;14.80;99.90
14170;DHT22;63889;50.596;8.690;2022-10-16T00:16:33;14.80;99.90
14170;DHT22;63889;50.596;8.690;2022-10-16T00:18:58;14.80;99.90
14170;DHT22;63889;50.596;8.690;2022-10-16T00:21:26;14.80;99.90
14170;DHT22;63889;50.596;8.690;2022-10-16T00:23:54;14.80;99.90
14170;DHT22;63889;50.596;8.690;2022-10-16T00:26:21;14.70;99.90
14170;DHT22;63889;50.596;8.690;2022-10-16T00:28:48;14.60;99.90
14170;DHT22;63889;50.596;8.690;2022-10-16T00:31:15;14.60;99.90
14170;DHT22;63889;50.596;8.690;2022-10-16T00:33:41;14.60;99.90
14170;DHT22;63889;50.596;8.690;2022-10-16T00:36:09;14.70;99.90
14170;DHT22;63889;50.596;8.690;2022-10-16T00:38:34;14.70;99.90
14170;DHT22;63889;50.596;8.690;2022-10-16T00:41:00;14.70;99.90
14170;DHT22;63889;50.596;8.690;2022-10-16T00:43:40;14.70;99.90
14170;DHT22;63889;50.596;8.690;2022-10-16T00:46:25;14.70;99.90
14170;DHT22;63889;50.596;8.690;2022-10-16T00:48:53;14.70;99.90
14170;DHT22;63889;50.596;8.690;2022-10-16T00:51:21;14.70;99.90
14170;DHT22;63889;50.596;8.690;2022-10-16T00:53:49;14.70;99.90
14170;DHT22;63889;50.596;8.690;2022-10-16T00:56:14;14.60;99.90
14170;DHT22;63889;50.596;8.690;2022-10-16T00:58:40;14.70;99.90
14170;DHT22;63889;50.596;8.690;2022-10-16T01:01:05;14.70;99.90
14170;DHT22;63889;50.596;8.690;2022-10-16T01:03:34;14.60;99.90
14170;DHT22;63889;50.596;8.690;2022-10-16T01:06:21;14.60;99.90
14170;DHT22;63889;50.596;8.690;2022-10-16T01:09:10;14.50;99.90
14170;DHT22;63889;50.596;8.690;2022-10-16T01:14:26;14.60;99.90
14170;DHT22;63889;50.596;8.690;2022-10-16T01:17:15;14.70;99.90
14170;DHT22;63889;50.596;8.690;2022-10-16T01:22:54;14.60;99.90
14170;DHT22;63889;50.596;8.690;2022-10-16T01:25:59;14.60;99.90
14170;DHT22;63889;50.596;8.690;2022-10-16T01:28:34;14.60;99.90
14170;DHT22;63889;50.596;8.690;2022-10-16T01:31:02;14.60;99.90
14170;DHT22;63889;50.596;8.690;2022-10-16T01:33:39;14.60;99.90
14170;DHT22;63889;50.596;8.690;2022-10-16T01:36:21;14.60;99.90
14170;DHT22;63889;50.596;8.690;2022-10-16T01:38:50;14.60;99.90
14170;DHT22;63889;50.596;8.690;2022-10-16T01:41:32;14.50;99.90
14170;DHT22;63889;50.596;8.690;2022-10-16T01:44:10;14.50;99.90
14170;DHT22;63889;50.596;8.690;2022-10-16T01:46:39;14.60;99.90
14170;DHT22;63889;50.596;8.690;2022-10-16T01:49:06;14.50;99.90
14170;DHT22;63889;50.596;8.690;2022-10-16T01:51:35;14.50;99.90
14170;DHT22;63889;50.596;8.690;2022-10-16T01:54:02;14.40;99.90
14170;DHT22;63889;50.596;8.690;2022-10-16T01:56:28;14.30;99.90
14170;DHT22;63889;50.596;8.690;2022-10-16T01:59:05;14.30;99.90
14170;DHT22;63889;50.596;8.690;2022-10-16T02:01:33;14.30;99.90
14170;DHT22;63889;50.596;8.690;2022-10-16T02:04:07;14.40;99.90
14170;DHT22;63889;50.596;8.690;2022-10-16T02:06:33;14.40;99.90
14170;DHT22;63889;50.596;8.690;2022-10-16T02:08:59;14.50;99.90
14170;DHT22;63889;50.596;8.690;2022-10-16T02:11:25;14.50;99.90
14170;DHT22;63889;50.596;8.690;2022-10-16T02:13:55;14.50;99.90
14170;DHT22;63889;50.596;8.690;2022-10-16T02:16:23;14.50;99.90
14170;DHT22;63889;50.596;8.690;2022-10-16T02:18:51;14.50;99.90
14170;DHT22;63889;50.596;8.690;2022-10-16T02:21:23;14.50;99.90
14170;DHT22;63889;50.596;8.690;2022-10-16T02:24:30;14.40;99.90
14170;DHT22;63889;50.596;8.690;2022-10-16T02:26:49;14.40;99.90
14170;DHT22;63889;50.596;8.690;2022-10-16T02:29:22;14.30;99.90
14170;DHT22;63889;50.596;8.690;2022-10-16T02:31:50;14.30;99.90
14170;DHT22;63889;50.596;8.690;2022-10-16T02:34:21;14.30;99.90
14170;DHT22;63889;50.596;8.690;2022-10-16T02:36:48;14.30;99.90
14170;DHT22;63889;50.596;8.690;2022-10-16T02:39:16;14.30;99.90
14170;DHT22;63889;50.596;8.690;2022-10-16T02:41:42;14.30;99.90
14170;DHT22;63889;50.596;8.690;2022-10-16T02:44:08;14.20;99.90
14170;DHT22;63889;50.596;8.690;2022-10-16T02:46:33;14.20;99.90
14170;DHT22;63889;50.596;8.690;2022-10-16T02:48:59;14.20;99.90
14170;DHT22;63889;50.596;8.690;2022-10-16T02:51:24;14.20;99.90
14170;DHT22;63889;50.596;8.690;2022-10-16T02:54:02;14.10;99.90
14170;DHT22;63889;50.596;8.690;2022-10-16T02:56:27;14.10;99.90
14170;DHT22;63889;50.596;8.690;2022-10-16T02:58:53;14.10;99.90
14170;DHT22;63889;50.596;8.690;2022-10-16T03:01:18;14.10;99.90
14170;DHT22;63889;50.596;8.690;2022-10-16T03:03:44;14.10;99.90
14170;DHT22;63889;50.596;8.690;2022-10-16T03:06:09;14.10;99.90
14170;DHT22;63889;50.596;8.690;2022-10-16T03:08:35;14.20;99.90
14170;DHT22;63889;50.596;8.690;2022-10-16T03:11:00;14.20;99.90
14170;DHT22;63889;50.596;8.690;2022-10-16T03:13:26;14.20;99.90
14170;DHT22;63889;50.596;8.690;2022-10-16T03:15:51;14.20;99.90
14170;DHT22;63889;50.596;8.690;2022-10-16T03:18:17;14.20;99.90
14170;DHT22;63889;50.596;8.690;2022-10-16T03:20:43;14.20;99.90
14170;DHT22;63889;50.596;8.690;2022-10-16T03:23:09;14.10;99.90
14170;DHT22;63889;50.596;8.690;2022-10-16T03:25:34;14.00;99.90
14170;DHT22;63889;50.596;8.690;2022-10-16T03:28:00;14.00;99.90
14170;DHT22;63889;50.596;8.690;2022-10-16T03:30:26;14.00;99.90
14170;DHT22;63889;50.596;8.690;2022-10-16T03:32:51;14.10;99.90
14170;DHT22;63889;50.596;8.690;2022-10-16T03:35:20;14.20;99.90
14170;DHT22;63889;50.596;8.690;2022-10-16T03:37:46;14.20;99.90
14170;DHT22;63889;50.596;8.690;2022-10-16T03:40:11;14.20;99.90
14170;DHT22;63889;50.596;8.690;2022-10-16T03:42:37;14.20;99.90
14170;DHT22;63889;50.596;8.690;2022-10-16T03:45:03;14.20;99.90
14170;DHT22;63889;50.596;8.690;2022-10-16T03:47:29;14.30;99.90
14170;DHT22;63889;50.596;8.690;2022-10-16T03:49:54;14.30;99.90
14170;DHT22;63889;50.596;8.690;2022-10-16T03:52:20;14.30;99.90
14170;DHT22;63889;50.596;8.690;2022-10-16T03:54:45;14.30;99.90
14170;DHT22;63889;50.596;8.690;2022-10-16T03:57:11;14.40;99.90
14170;DHT22;63889;50.596;8.690;2022-10-16T03:59:36;14.50;99.90
14170;DHT22;63889;50.596;8.690;2022-10-16T04:02:02;14.50;99.90
14170;DHT22;63889;50.596;8.690;2022-10-16T04:04:28;14.50;99.90
14170;DHT22;63889;50.596;8.690;2022-10-16T04:06:53;14.40;99.90
14170;DHT22;63889;50.596;8.690;2022-10-16T04:09:19;14.40;99.90
14170;DHT22;63889;50.596;8.690;2022-10-16T04:11:44;14.30;99.90
14170;DHT22;63889;50.596;8.690;2022-10-16T04:14:10;14.30;99.90
14170;DHT22;63889;50.596;8.690;2022-10-16T04:16:35;14.40;99.90
14170;DHT22;63889;50.596;8.690;2022-10-16T04:19:01;14.50;99.90
14170;DHT22;63889;50.596;8.690;2022-10-16T04:21:27;14.60;99.90
14170;DHT22;63889;50.596;8.690;2022-10-16T04:23:52;14.70;99.90
14170;DHT22;63889;50.596;8.690;2022-10-16T04:26:18;14.80;99.90
14170;DHT22;63889;50.596;8.690;2022-10-16T04:28:43;14.80;99.90
14170;DHT22;63889;50.596;8.690;2022-10-16T04:31:09;14.90;99.90
14170;DHT22;63889;50.596;8.690;2022-10-16T04:33:34;14.90;99.90
14170;DHT22;63889;50.596;8.690;2022-10-16T04:36:01;14.90;99.90
14170;DHT22;63889;50.596;8.690;2022-10-16T04:38:28;14.90;99.90
14170;DHT22;63889;50.596;8.690;2022-10-16T04:40:53;14.90;99.90
14170;DHT22;63889;50.596;8.690;2022-10-16T04:43:19;15.00;99.90
14170;DHT22;63889;50.596;8.690;2022-10-16T04:45:45;15.00;99.90
14170;DHT22;63889;50.596;8.690;2022-10-16T04:48:10;15.00;99.90
14170;DHT22;63889;50.596;8.690;2022-10-16T04:50:36;15.00;99.90
14170;DHT22;63889;50.596;8.690;2022-10-16T04:53:01;15.00;99.90
14170;DHT22;63889;50.596;8.690;2022-10-16T04:55:27;15.00;99.90
14170;DHT22;63889;50.596;8.690;2022-10-16T04:57:53;14.90;99.90
14170;DHT22;63889;50.596;8.690;2022-10-16T05:00:18;14.80;99.90
14170;DHT22;63889;50.596;8.690;2022-10-16T05:02:44;14.80;99.90
14170;DHT22;63889;50.596;8.690;2022-10-16T05:05:09;14.70;99.90
14170;DHT22;63889;50.596;8.690;2022-10-16T05:07:35;14.60;99.90
14170;DHT22;63889;50.596;8.690;2022-10-16T05:10:00;14.60;99.90
14170;DHT22;63889;50.596;8.690;2022-10-16T05:12:26;14.60;99.90
14170;DHT22;63889;50.596;8.690;2022-10-16T05:14:51;14.60;99.90
14170;DHT22;63889;50.596;8.690;2022-10-16T05:17:17;14.60;99.90
14170;DHT22;63889;50.596;8.690;2022-10-16T05:19:43;14.60;99.90
14170;DHT22;63889;50.596;8.690;2022-10-16T05:22:08;14.60;99.90
14170;DHT22;63889;50.596;8.690;2022-10-16T05:24:34;14.60;99.90
14170;DHT22;63889;50.596;8.690;2022-10-16T05:26:59;14.70;99.90
14170;DHT22;63889;50.596;8.690;2022-10-16T05:29:25;14.60;99.90
14170;DHT22;63889;50.596;8.690;2022-10-16T05:31:52;14.50;99.90
14170;DHT22;63889;50.596;8.690;2022-10-16T05:34:18;14.40;99.90
14170;DHT22;63889;50.596;8.690;2022-10-16T05:36:43;14.30;99.90
14170;DHT22;63889;50.596;8.690;2022-10-16T05:39:10;14.30;99.90
14170;DHT22;63889;50.596;8.690;2022-10-16T05:41:36;14.30;99.90
14170;DHT22;63889;50.596;8.690;2022-10-16T05:44:04;14.40;99.90
14170;DHT22;63889;50.596;8.690;2022-10-16T05:46:30;14.40;99.90
14170;DHT22;63889;50.596;8.690;2022-10-16T05:48:56;14.40;99.90
14170;DHT22;63889;50.596;8.690;2022-10-16T05:51:21;14.50;99.90
14170;DHT22;63889;50.596;8.690;2022-10-16T05:53:47;14.40;99.90
14170;DHT22;63889;50.596;8.690;2022-10-16T05:56:12;14.50;99.90
14170;DHT22;63889;50.596;8.690;2022-10-16T05:58:38;14.40;99.90
14170;DHT22;63889;50.596;8.690;2022-10-16T06:01:10;14.30;99.90
14170;DHT22;63889;50.596;8.690;2022-10-16T06:03:35;14.30;99.90
14170;DHT22;63889;50.596;8.690;2022-10-16T06:06:15;14.20;99.90
14170;DHT22;63889;50.596;8.690;2022-10-16T06:08:43;14.20;99.90
14170;DHT22;63889;50.596;8.690;2022-10-16T06:11:11;14.20;99.90
14170;DHT22;63889;50.596;8.690;2022-10-16T06:13:37;14.20;99.90
14170;DHT22;63889;50.596;8.690;2022-10-16T06:16:04;14.30;99.90
14170;DHT22;63889;50.596;8.690;2022-10-16T06:18:30;14.20;99.90
14170;DHT22;63889;50.596;8.690;2022-10-16T06:20:56;14.30;99.90
14170;DHT22;63889;50.596;8.690;2022-10-16T06:23:22;14.30;99.90
14170;DHT22;63889;50.596;8.690;2022-10-16T06:25:48;14.40;99.90
14170;DHT22;63889;50.596;8.690;2022-10-16T06:28:14;14.40;99.90
14170;DHT22;63889;50.596;8.690;2022-10-16T06:30:40;14.50;99.90
14170;DHT22;63889;50.596;8.690;2022-10-16T06:33:06;14.50;99.90
14170;DHT22;63889;50.596;8.690;2022-10-16T06:35:31;14.50;99.90
14170;DHT22;63889;50.596;8.690;2022-10-16T06:37:57;14.50;99.90
14170;DHT22;63889;50.596;8.690;2022-10-16T06:40:23;14.50;99.90
14170;DHT22;63889;50.596;8.690;2022-10-16T06:42:48;14.50;99.90
14170;DHT22;63889;50.596;8.690;2022-10-16T06:45:14;14.60;99.90
14170;DHT22;63889;50.596;8.690;2022-10-16T06:47:39;14.50;99.90
14170;DHT22;63889;50.596;8.690;2022-10-16T06:50:05;14.50;99.90
14170;DHT22;63889;50.596;8.690;2022-10-16T06:52:33;14.60;99.90
14170;DHT22;63889;50.596;8.690;2022-10-16T06:54:59;14.60;99.90
14170;DHT22;63889;50.596;8.690;2022-10-16T06:57:24;14.70;99.90
14170;DHT22;63889;50.596;8.690;2022-10-16T06:59:50;14.70;99.90
14170;DHT22;63889;50.596;8.690;2022-10-16T07:02:15;14.70;99.90
14170;DHT22;63889;50.596;8.690;2022-10-16T07:04:40;14.70;99.90
14170;DHT22;63889;50.596;8.690;2022-10-16T07:07:06;14.70;99.90
14170;DHT22;63889;50.596;8.690;2022-10-16T07:09:45;14.70;99.90
14170;DHT22;63889;50.596;8.690;2022-10-16T07:12:10;14.80;99.90
14170;DHT22;63889;50.596;8.690;2022-10-16T07:14:36;14.70;99.90
14170;DHT22;63889;50.596;8.690;2022-10-16T07:17:02;14.70;99.90
14170;DHT22;63889;50.596;8.690;2022-10-16T07:19:28;14.70;99.90
14170;DHT22;63889;50.596;8.690;2022-10-16T07:21:53;14.70;99.90
14170;DHT22;63889;50.596;8.690;2022-10-16T07:24:19;14.70;99.90
14170;DHT22;63889;50.596;8.690;2022-10-16T07:26:45;14.70;99.90
14170;DHT22;63889;50.596;8.690;2022-10-16T07:29:16;14.70;99.90
14170;DHT22;63889;50.596;8.690;2022-10-16T07:31:43;14.70;99.90
14170;DHT22;63889;50.596;8.690;2022-10-16T07:34:09;14.80;99.90
14170;DHT22;63889;50.596;8.690;2022-10-16T07:36:35;14.80;99.90
14170;DHT22;63889;50.596;8.690;2022-10-16T07:39:01;14.90;99.90
14170;DHT22;63889;50.596;8.690;2022-10-16T07:41:27;14.90;99.90
14170;DHT22;63889;50.596;8.690;2022-10-16T07:43:53;15.00;99.90
14170;DHT22;63889;50.596;8.690;2022-10-16T07:46:21;15.00;99.90
14170;DHT22;63889;50.596;8.690;2022-10-16T07:48:47;15.10;99.90
14170;DHT22;63889;50.596;8.690;2022-10-16T07:51:18;15.10;99.90
14170;DHT22;63889;50.596;8.690;2022-10-16T07:53:44;15.10;99.90
14170;DHT22;63889;50.596;8.690;2022-10-16T07:56:10;15.10;99.90
14170;DHT22;63889;50.596;8.690;2022-10-16T07:58:37;15.10;99.90
14170;DHT22;63889;50.596;8.690;2022-10-16T08:01:05;15.10;99.90
14170;DHT22;63889;50.596;8.690;2022-10-16T08:03:30;15.10;99.90
14170;DHT22;63889;50.596;8.690;2022-10-16T08:05:57;15.10;99.90
14170;DHT22;63889;50.596;8.690;2022-10-16T08:08:22;15.10;99.90
14170;DHT22;63889;50.596;8.690;2022-10-16T08:10:48;15.20;99.90
14170;DHT22;63889;50.596;8.690;2022-10-16T08:13:13;15.20;99.90
14170;DHT22;63889;50.596;8.690;2022-10-16T08:15:41;15.20;99.90
14170;DHT22;63889;50.596;8.690;2022-10-16T08:18:06;15.20;99.90
14170;DHT22;63889;50.596;8.690;2022-10-16T08:20:32;15.20;99.90
14170;DHT22;63889;50.596;8.690;2022-10-16T08:22:59;15.20;99.90
14170;DHT22;63889;50.596;8.690;2022-10-16T08:25:25;15.20;99.90
14170;DHT22;63889;50.596;8.690;2022-10-16T08:27:50;15.20;99.90
14170;DHT22;63889;50.596;8.690;2022-10-16T08:30:18;15.20;99.90
14170;DHT22;63889;50.596;8.690;2022-10-16T08:32:44;15.30;99.90
14170;DHT22;63889;50.596;8.690;2022-10-16T08:35:11;15.40;99.90
14170;DHT22;63889;50.596;8.690;2022-10-16T08:37:38;15.40;99.90
14170;DHT22;63889;50.596;8.690;2022-10-16T08:40:05;15.50;99.90
14170;DHT22;63889;50.596;8.690;2022-10-16T08:48:00;15.60;99.90
14170;DHT22;63889;50.596;8.690;2022-10-16T08:50:31;15.70;99.90
14170;DHT22;63889;50.596;8.690;2022-10-16T08:52:57;15.70;99.90
14170;DHT22;63889;50.596;8.690;2022-10-16T08:58:00;15.60;99.90
14170;DHT22;63889;50.596;8.690;2022-10-16T09:00:27;15.70;99.90
14170;DHT22;63889;50.596;8.690;2022-10-16T09:05:54;15.90;99.90
14170;DHT22;63889;50.596;8.690;2022-10-16T09:08:42;16.00;99.90
14170;DHT22;63889;50.596;8.690;2022-10-16T09:17:41;16.00;99.90
14170;DHT22;63889;50.596;8.690;2022-10-16T09:23:14;16.30;99.90
14170;DHT22;63889;50.596;8.690;2022-10-16T09:25:47;16.40;99.90
14170;DHT22;63889;50.596;8.690;2022-10-16T09:28:13;16.60;99.90
14170;DHT22;63889;50.596;8.690;2022-10-16T09:30:39;16.70;99.90
14170;DHT22;63889;50.596;8.690;2022-10-16T09:33:05;16.80;99.90
14170;DHT22;63889;50.596;8.690;2022-10-16T09:38:02;17.20;99.90
14170;DHT22;63889;50.596;8.690;2022-10-16T09:40:33;17.20;99.90
14170;DHT22;63889;50.596;8.690;2022-10-16T09:43:18;17.20;99.90
14170;DHT22;63889;50.596;8.690;2022-10-16T09:45:56;17.20;99.90
14170;DHT22;63889;50.596;8.690;2022-10-16T09:48:22;17.20;99.90
14170;DHT22;63889;50.596;8.690;2022-10-16T09:50:59;17.30;99.90
14170;DHT22;63889;50.596;8.690;2022-10-16T09:53:37;17.30;99.90
14170;DHT22;63889;50.596;8.690;2022-10-16T09:56:03;17.40;99.90
14170;DHT22;63889;50.596;8.690;2022-10-16T09:58:31;17.60;99.90
14170;DHT22;63889;50.596;8.690;2022-10-16T10:00:58;17.70;99.90
14170;DHT22;63889;50.596;8.690;2022-10-16T10:03:35;17.90;99.90
14170;DHT22;63889;50.596;8.690;2022-10-16T10:06:17;18.00;99.90
14170;DHT22;63889;50.596;8.690;2022-10-16T10:11:43;18.10;99.90
14170;DHT22;63889;50.596;8.690;2022-10-16T10:16:52;18.00;99.90
14170;DHT22;63889;50.596;8.690;2022-10-16T10:19:23;18.00;99.90
14170;DHT22;63889;50.596;8.690;2022-10-16T10:21:50;18.10;99.90
14170;DHT22;63889;50.596;8.690;2022-10-16T10:24:18;18.30;99.90
14170;DHT22;63889;50.596;8.690;2022-10-16T10:27:09;18.40;99.90
14170;DHT22;63889;50.596;8.690;2022-10-16T10:29:55;18.50;99.90
14170;DHT22;63889;50.596;8.690;2022-10-16T10:32:29;18.50;99.90
14170;DHT22;63889;50.596;8.690;2022-10-16T10:35:14;18.50;99.90
14170;DHT22;63889;50.596;8.690;2022-10-16T10:40:21;18.80;99.90
14170;DHT22;63889;50.596;8.690;2022-10-16T10:42:57;18.90;99.90
14170;DHT22;63889;50.596;8.690;2022-10-16T10:45:31;19.00;99.90
14170;DHT22;63889;50.596;8.690;2022-10-16T10:48:26;19.20;99.90
14170;DHT22;63889;50.596;8.690;2022-10-16T10:51:03;19.40;99.90
14170;DHT22;63889;50.596;8.690;2022-10-16T10:53:52;19.60;99.90
14170;DHT22;63889;50.596;8.690;2022-10-16T10:56:39;19.90;99.90
14170;DHT22;63889;50.596;8.690;2022-10-16T11:01:53;20.40;99.90
14170;DHT22;63889;50.596;8.690;2022-10-16T11:07:22;20.20;99.90
14170;DHT22;63889;50.596;8.690;2022-10-16T11:10:02;20.40;99.90
14170;DHT22;63889;50.596;8.690;2022-10-16T11:12:36;20.60;99.90
14170;DHT22;63889;50.596;8.690;2022-10-16T11:15:14;20.70;99.90
14170;DHT22;63889;50.596;8.690;2022-10-16T11:17:52;20.80;99.90
14170;DHT22;63889;50.596;8.690;2022-10-16T11:20:26;21.00;99.90
14170;DHT22;63889;50.596;8.690;2022-10-16T11:23:05;21.00;99.90
14170;DHT22;63889;50.596;8.690;2022-10-16T11:25:33;21.10;99.90
14170;DHT22;63889;50.596;8.690;2022-10-16T11:28:20;21.30;99.90
14170;DHT22;63889;50.596;8.690;2022-10-16T11:35:59;21.50;99.90
14170;DHT22;63889;50.596;8.690;2022-10-16T11:38:46;21.70;99.90
14170;DHT22;63889;50.596;8.690;2022-10-16T11:41:17;22.00;99.90
14170;DHT22;63889;50.596;8.690;2022-10-16T11:44:00;22.00;99.90
14170;DHT22;63889;50.596;8.690;2022-10-16T11:46:31;22.00;99.90
14170;DHT22;63889;50.596;8.690;2022-10-16T11:49:07;22.10;99.90
14170;DHT22;63889;50.596;8.690;2022-10-16T11:51:48;22.10;99.90
14170;DHT22;63889;50.596;8.690;2022-10-16T11:56:50;22.10;99.90
14170;DHT22;63889;50.596;8.690;2022-10-16T11:59:28;22.10;99.90
14170;DHT22;63889;50.596;8.690;2022-10-16T12:02:30;21.90;99.90
14170;DHT22;63889;50.596;8.690;2022-10-16T12:05:17;21.80;99.90
14170;DHT22;63889;50.596;8.690;2022-10-16T12:08:11;21.80;99.90
14170;DHT22;63889;50.596;8.690;2022-10-16T12:10:37;22.20;99.90
14170;DHT22;63889;50.596;8.690;2022-10-16T12:13:27;22.70;99.90
14170;DHT22;63889;50.596;8.690;2022-10-16T12:16:24;22.70;99.90
14170;DHT22;63889;50.596;8.690;2022-10-16T12:19:07;22.90;99.90
14170;DHT22;63889;50.596;8.690;2022-10-16T12:21:34;22.80;99.90
14170;DHT22;63889;50.596;8.690;2022-10-16T12:24:02;22.90;99.90
14170;DHT22;63889;50.596;8.690;2022-10-16T12:26:37;23.00;99.90
14170;DHT22;63889;50.596;8.690;2022-10-16T12:29:14;23.30;99.90
14170;DHT22;63889;50.596;8.690;2022-10-16T12:31:45;23.60;99.90
14170;DHT22;63889;50.596;8.690;2022-10-16T12:39:44;23.60;99.90
14170;DHT22;63889;50.596;8.690;2022-10-16T12:44:55;23.10;99.90
14170;DHT22;63889;50.596;8.690;2022-10-16T12:49:59;22.50;99.90
14170;DHT22;63889;50.596;8.690;2022-10-16T12:54:59;22.00;99.90
14170;DHT22;63889;50.596;8.690;2022-10-16T13:00:59;21.80;99.90
14170;DHT22;63889;50.596;8.690;2022-10-16T13:03:22;21.70;99.90
14170;DHT22;63889;50.596;8.690;2022-10-16T13:06:19;21.60;99.90
14170;DHT22;63889;50.596;8.690;2022-10-16T13:22:27;22.90;99.90
14170;DHT22;63889;50.596;8.690;2022-10-16T13:30:26;23.10;99.90
14170;DHT22;63889;50.596;8.690;2022-10-16T13:33:02;23.30;99.90
14170;DHT22;63889;50.596;8.690;2022-10-16T13:35:31;24.00;99.90
14170;DHT22;63889;50.596;8.690;2022-10-16T13:38:24;24.50;99.90
14170;DHT22;63889;50.596;8.690;2022-10-16T13:41:02;24.30;99.90
14170;DHT22;63889;50.596;8.690;2022-10-16T13:43:29;24.40;99.90
14170;DHT22;63889;50.596;8.690;2022-10-16T13:46:03;24.00;99.90
14170;DHT22;63889;50.596;8.690;2022-10-16T13:48:30;24.00;99.90
14170;DHT22;63889;50.596;8.690;2022-10-16T13:51:04;24.00;99.90
14170;DHT22;63889;50.596;8.690;2022-10-16T13:53:32;24.20;99.90
14170;DHT22;63889;50.596;8.690;2022-10-16T13:55:59;24.20;99.90
14170;DHT22;63889;50.596;8.690;2022-10-16T13:58:25;24.20;99.90
14170;DHT22;63889;50.596;8.690;2022-10-16T14:01:06;24.40;99.90
14170;DHT22;63889;50.596;8.690;2022-10-16T14:03:41;24.00;99.90
14170;DHT22;63889;50.596;8.690;2022-10-16T14:06:12;23.90;99.90
14170;DHT22;63889;50.596;8.690;2022-10-16T14:08:43;24.20;99.90
14170;DHT22;63889;50.596;8.690;2022-10-16T14:11:09;24.60;99.90
14170;DHT22;63889;50.596;8.690;2022-10-16T14:13:43;24.60;99.90
14170;DHT22;63889;50.596;8.690;2022-10-16T14:16:11;24.30;99.90
14170;DHT22;63889;50.596;8.690;2022-10-16T14:18:41;24.50;99.90
14170;DHT22;63889;50.596;8.690;2022-10-16T14:21:10;25.10;99.90
14170;DHT22;63889;50.596;8.690;2022-10-16T14:23:38;25.10;99.90
14170;DHT22;63889;50.596;8.690;2022-10-16T14:28:32;24.20;99.90
14170;DHT22;63889;50.596;8.690;2022-10-16T14:31:00;23.60;99.90
14170;DHT22;63889;50.596;8.690;2022-10-16T14:38:36;22.20;99.90
14170;DHT22;63889;50.596;8.690;2022-10-16T14:41:03;21.80;99.90
14170;DHT22;63889;50.596;8.690;2022-10-16T14:43:36;21.60;99.90
14170;DHT22;63889;50.596;8.690;2022-10-16T14:46:04;21.50;99.90
14170;DHT22;63889;50.596;8.690;2022-10-16T14:48:31;21.60;99.90
14170;DHT22;63889;50.596;8.690;2022-10-16T14:50:57;21.50;99.90
14170;DHT22;63889;50.596;8.690;2022-10-16T14:53:22;21.40;99.90
14170;DHT22;63889;50.596;8.690;2022-10-16T14:55:48;21.50;99.90
14170;DHT22;63889;50.596;8.690;2022-10-16T14:58:21;21.40;99.90
14170;DHT22;63889;50.596;8.690;2022-10-16T15:00:48;21.20;99.90
14170;DHT22;63889;50.596;8.690;2022-10-16T15:03:14;21.20;99.90
14170;DHT22;63889;50.596;8.690;2022-10-16T15:05:40;21.20;99.90
14170;DHT22;63889;50.596;8.690;2022-10-16T15:08:06;21.10;99.90
14170;DHT22;63889;50.596;8.690;2022-10-16T15:10:36;21.00;99.90
14170;DHT22;63889;50.596;8.690;2022-10-16T15:13:02;21.00;99.90
14170;DHT22;63889;50.596;8.690;2022-10-16T15:15:43;21.00;99.90
14170;DHT22;63889;50.596;8.690;2022-10-16T15:18:09;21.00;99.90
14170;DHT22;63889;50.596;8.690;2022-10-16T15:20:37;20.90;99.90
14170;DHT22;63889;50.596;8.690;2022-10-16T15:23:14;20.90;99.90
14170;DHT22;63889;50.596;8.690;2022-10-16T15:25:45;20.80;99.90
14170;DHT22;63889;50.596;8.690;2022-10-16T15:28:11;20.80;99.90
14170;DHT22;63889;50.596;8.690;2022-10-16T15:30:38;20.70;99.90
14170;DHT22;63889;50.596;8.690;2022-10-16T15:33:04;20.70;99.90
14170;DHT22;63889;50.596;8.690;2022-10-16T15:35:30;20.60;99.90
14170;DHT22;63889;50.596;8.690;2022-10-16T15:37:56;20.60;99.90
14170;DHT22;63889;50.596;8.690;2022-10-16T15:40:22;20.60;99.90
14170;DHT22;63889;50.596;8.690;2022-10-16T15:42:48;20.70;99.90
14170;DHT22;63889;50.596;8.690;2022-10-16T15:45:15;20.70;99.90
14170;DHT22;63889;50.596;8.690;2022-10-16T15:47:41;20.70;99.90
14170;DHT22;63889;50.596;8.690;2022-10-16T15:50:10;20.60;99.90
14170;DHT22;63889;50.596;8.690;2022-10-16T15:52:36;20.60;99.90
14170;DHT22;63889;50.596;8.690;2022-10-16T15:55:01;20.60;99.90
14170;DHT22;63889;50.596;8.690;2022-10-16T15:57:30;20.60;99.90
14170;DHT22;63889;50.596;8.690;2022-10-16T15:59:56;20.60;99.90
14170;DHT22;63889;50.596;8.690;2022-10-16T16:02:21;20.60;99.90
14170;DHT22;63889;50.596;8.690;2022-10-16T16:04:47;20.60;99.90
14170;DHT22;63889;50.596;8.690;2022-10-16T16:07:12;20.50;99.90
14170;DHT22;63889;50.596;8.690;2022-10-16T16:09:38;20.40;99.90
14170;DHT22;63889;50.596;8.690;2022-10-16T16:12:03;20.20;99.90
14170;DHT22;63889;50.596;8.690;2022-10-16T16:14:29;20.10;99.90
14170;DHT22;63889;50.596;8.690;2022-10-16T16:16:55;20.00;99.90
14170;DHT22;63889;50.596;8.690;2022-10-16T16:19:21;19.90;99.90
14170;DHT22;63889;50.596;8.690;2022-10-16T16:21:47;20.00;99.90
14170;DHT22;63889;50.596;8.690;2022-10-16T16:24:13;19.90;99.90
14170;DHT22;63889;50.596;8.690;2022-10-16T16:26:39;19.80;99.90
14170;DHT22;63889;50.596;8.690;2022-10-16T16:29:05;19.90;99.90
14170;DHT22;63889;50.596;8.690;2022-10-16T16:31:32;19.70;99.90
14170;DHT22;63889;50.596;8.690;2022-10-16T16:33:58;19.70;99.90
14170;DHT22;63889;50.596;8.690;2022-10-16T16:36:25;19.60;99.90
14170;DHT22;63889;50.596;8.690;2022-10-16T16:38:50;19.60;99.90
14170;DHT22;63889;50.596;8.690;2022-10-16T16:41:21;19.50;99.90
14170;DHT22;63889;50.596;8.690;2022-10-16T16:43:47;19.40;99.90
14170;DHT22;63889;50.596;8.690;2022-10-16T16:46:13;19.30;99.90
14170;DHT22;63889;50.596;8.690;2022-10-16T16:48:39;19.40;99.90
14170;DHT22;63889;50.596;8.690;2022-10-16T16:51:06;19.30;99.90
14170;DHT22;63889;50.596;8.690;2022-10-16T16:53:36;19.20;99.90
14170;DHT22;63889;50.596;8.690;2022-10-16T16:56:05;19.20;99.90
14170;DHT22;63889;50.596;8.690;2022-10-16T16:58:31;19.10;99.90
14170;DHT22;63889;50.596;8.690;2022-10-16T17:00:58;19.00;99.90
14170;DHT22;63889;50.596;8.690;2022-10-16T17:03:34;19.00;99.90
14170;DHT22;63889;50.596;8.690;2022-10-16T17:06:09;19.00;99.90
14170;DHT22;63889;50.596;8.690;2022-10-16T17:08:35;19.00;99.90
14170;DHT22;63889;50.596;8.690;2022-10-16T17:11:01;19.00;99.90
14170;DHT22;63889;50.596;8.690;2022-10-16T17:13:31;19.00;99.90
14170;DHT22;63889;50.596;8.690;2022-10-16T17:15:57;19.00;99.90
14170;DHT22;63889;50.596;8.690;2022-10-16T17:18:23;18.90;99.90